Leo Star I — ELXC6 — position and weather

sailwx.info

Track history (hours):
 
Tides and Currents Weather Stations Pressure Air Temp Water Temp Dewpoint Dewpoint Depression Visibility Wind Speed Wind Dir Waves Ship Positions

Leo Star I

Last reported at 2017-Feb-16 07:22 UTC. Time now 2017-Feb-27 02:09 UTC.
Position N 25°32' W 015°32'.
Warning: this ship's position is 10 days out of date.

Length 157 m; draft 8.1 m.

Type: Cargo ship. MMSI: 636015065.

Date/timePositionNaut miles runAvg speedWind from/ knotsBaromVisibWave heightAir tempDewpointWater temp
2017-Feb-16 07:22N 25°32' W 015°32'16412.6
2017-Feb-15 18:23N 27°48' W 013°50'1113.2
2017-Feb-15 17:33N 27°57' W 013°43'1313.1
2017-Feb-15 16:33N 28°07' W 013°34'1312.5
2017-Feb-15 15:33N 28°18' W 013°26'1212.4
2017-Feb-15 14:33N 28°28' W 013°18'1212.1
2017-Feb-15 13:33N 28°38' W 013°10'1212.2
2017-Feb-15 12:32N 28°48' W 013°02'  
2017-Feb-11 17:16N 35°57' W 005°47'810.2
2017-Feb-11 16:31N 35°57' W 005°37'1010.7
2017-Feb-11 15:34N 36°00' W 005°25'1010.0
2017-Feb-11 14:34N 36°02' W 005°13'1111.1
2017-Feb-11 13:33N 36°04' W 004°59'21412.5
2017-Feb-10 20:23N 36°39' W 000°37'2712.3
2017-Feb-10 18:12N 36°42' W 000°04'812.1
2017-Feb-10 17:33N 36°43' E 000°05'7311.2
2017-Feb-10 11:05N 36°54' E 001°35'2911.4
2017-Feb-10 08:32N 36°59' E 002°11'1212.2
2017-Feb-10 07:32N 37°01' E 002°26'  
2017-Feb-07 20:07N 36°46' E 013°21'6 9.7
2017-Feb-07 19:31N 36°44' E 013°28'12 9.5
2017-Feb-07 18:13N 36°41' E 013°42'6 9.1
2017-Feb-07 17:34N 36°39' E 013°49'9 8.8
2017-Feb-07 16:33N 36°36' E 013°60'9 8.7
2017-Feb-07 15:34N 36°33' E 014°10'9 9.2
2017-Feb-07 14:34N 36°30' E 014°21'9 8.8
2017-Feb-07 13:33N 36°28' E 014°32'9 8.7
2017-Feb-07 12:33N 36°28' E 014°42'  
Track history (hours):
 
Tides and Currents Weather Stations Pressure Air Temp Water Temp Dewpoint Dewpoint Depression Visibility Wind Speed Wind Dir Waves Ship Positions

Leo Star I

Last reported at 2017-Feb-16 07:22 UTC. Time now 2017-Feb-27 02:09 UTC.
Position N 25°32' W 015°32'.
Warning: this ship's position is 10 days out of date.

Length 157 m; draft 8.1 m.

Type: Cargo ship. MMSI: 636015065.

Date/timePositionNaut miles runAvg speedWind from/ knotsBaromVisibWave heightAir tempDewpointWater temp
2017-Feb-16 07:22N 25°32' W 015°32'16412.6
2017-Feb-15 18:23N 27°48' W 013°50'1113.2
2017-Feb-15 17:33N 27°57' W 013°43'1313.1
2017-Feb-15 16:33N 28°07' W 013°34'1312.5
2017-Feb-15 15:33N 28°18' W 013°26'1212.4
2017-Feb-15 14:33N 28°28' W 013°18'1212.1
2017-Feb-15 13:33N 28°38' W 013°10'1212.2
2017-Feb-15 12:32N 28°48' W 013°02'  
2017-Feb-11 17:16N 35°57' W 005°47'810.2
2017-Feb-11 16:31N 35°57' W 005°37'1010.7
2017-Feb-11 15:34N 36°00' W 005°25'1010.0
2017-Feb-11 14:34N 36°02' W 005°13'1111.1
2017-Feb-11 13:33N 36°04' W 004°59'21412.5
2017-Feb-10 20:23N 36°39' W 000°37'2712.3
2017-Feb-10 18:12N 36°42' W 000°04'812.1
2017-Feb-10 17:33N 36°43' E 000°05'7311.2
2017-Feb-10 11:05N 36°54' E 001°35'2911.4
2017-Feb-10 08:32N 36°59' E 002°11'1212.2
2017-Feb-10 07:32N 37°01' E 002°26'  
2017-Feb-07 20:07N 36°46' E 013°21'6 9.7
2017-Feb-07 19:31N 36°44' E 013°28'12 9.5
2017-Feb-07 18:13N 36°41' E 013°42'6 9.1
2017-Feb-07 17:34N 36°39' E 013°49'9 8.8
2017-Feb-07 16:33N 36°36' E 013°60'9 8.7
2017-Feb-07 15:34N 36°33' E 014°10'9 9.2
2017-Feb-07 14:34N 36°30' E 014°21'9 8.8
2017-Feb-07 13:33N 36°28' E 014°32'9 8.7
2017-Feb-07 12:33N 36°28' E 014°42'  

Dump ship's entire track history